sensor_id;sensor_type;location;lat;lon;timestamp;P1;durP1;ratioP1;P2;durP2;ratioP2
75603;SDS011;64187;51.010;13.792;2023-07-28T00:03:06;0.98;;;0.55;;
75603;SDS011;64187;51.010;13.792;2023-07-28T00:08:05;0.98;;;0.40;;
75603;SDS011;64187;51.010;13.792;2023-07-28T00:13:04;0.55;;;0.55;;
75603;SDS011;64187;51.010;13.792;2023-07-28T00:18:03;0.60;;;0.50;;
75603;SDS011;64187;51.010;13.792;2023-07-28T00:23:02;1.13;;;0.60;;
75603;SDS011;64187;51.010;13.792;2023-07-28T00:28:00;1.20;;;0.40;;
75603;SDS011;64187;51.010;13.792;2023-07-28T00:32:59;0.80;;;0.60;;
75603;SDS011;64187;51.010;13.792;2023-07-28T00:37:58;1.65;;;0.60;;
75603;SDS011;64187;51.010;13.792;2023-07-28T00:42:57;2.13;;;0.60;;
75603;SDS011;64187;51.010;13.792;2023-07-28T00:47:56;1.75;;;0.57;;
75603;SDS011;64187;51.010;13.792;2023-07-28T00:52:58;2.25;;;0.50;;
75603;SDS011;64187;51.010;13.792;2023-07-28T00:57:56;1.67;;;0.80;;
75603;SDS011;64187;51.010;13.792;2023-07-28T01:02:56;2.03;;;0.70;;
75603;SDS011;64187;51.010;13.792;2023-07-28T01:08:00;1.20;;;0.63;;
75603;SDS011;64187;51.010;13.792;2023-07-28T01:13:04;0.93;;;0.70;;
75603;SDS011;64187;51.010;13.792;2023-07-28T01:18:03;2.58;;;1.20;;
75603;SDS011;64187;51.010;13.792;2023-07-28T01:23:07;2.92;;;1.00;;
75603;SDS011;64187;51.010;13.792;2023-07-28T01:28:11;1.42;;;0.93;;
75603;SDS011;64187;51.010;13.792;2023-07-28T01:33:11;2.00;;;1.10;;
75603;SDS011;64187;51.010;13.792;2023-07-28T01:38:10;2.85;;;1.05;;
75603;SDS011;64187;51.010;13.792;2023-07-28T01:43:11;2.72;;;0.98;;
75603;SDS011;64187;51.010;13.792;2023-07-28T01:48:10;2.63;;;1.10;;
75603;SDS011;64187;51.010;13.792;2023-07-28T01:53:09;1.23;;;0.82;;
75603;SDS011;64187;51.010;13.792;2023-07-28T01:58:08;3.22;;;1.58;;
75603;SDS011;64187;51.010;13.792;2023-07-28T02:03:08;2.80;;;1.58;;
75603;SDS011;64187;51.010;13.792;2023-07-28T02:08:07;2.33;;;1.20;;
75603;SDS011;64187;51.010;13.792;2023-07-28T02:13:05;4.70;;;1.45;;
75603;SDS011;64187;51.010;13.792;2023-07-28T02:18:04;2.75;;;1.42;;
75603;SDS011;64187;51.010;13.792;2023-07-28T02:23:04;3.20;;;1.23;;
75603;SDS011;64187;51.010;13.792;2023-07-28T02:28:03;3.13;;;1.15;;
75603;SDS011;64187;51.010;13.792;2023-07-28T02:33:02;2.88;;;1.00;;
75603;SDS011;64187;51.010;13.792;2023-07-28T02:38:01;3.17;;;1.13;;
75603;SDS011;64187;51.010;13.792;2023-07-28T02:43:00;4.18;;;1.73;;
75603;SDS011;64187;51.010;13.792;2023-07-28T02:47:59;1.25;;;1.10;;
75603;SDS011;64187;51.010;13.792;2023-07-28T02:53:00;1.73;;;1.13;;
75603;SDS011;64187;51.010;13.792;2023-07-28T02:57:59;5.95;;;1.30;;
75603;SDS011;64187;51.010;13.792;2023-07-28T03:02:58;2.03;;;1.05;;
75603;SDS011;64187;51.010;13.792;2023-07-28T03:07:57;1.70;;;0.90;;
75603;SDS011;64187;51.010;13.792;2023-07-28T03:12:57;1.27;;;0.90;;
75603;SDS011;64187;51.010;13.792;2023-07-28T03:17:56;4.85;;;1.10;;
75603;SDS011;64187;51.010;13.792;2023-07-28T03:22:55;1.50;;;0.77;;
75603;SDS011;64187;51.010;13.792;2023-07-28T03:27:54;4.43;;;1.30;;
75603;SDS011;64187;51.010;13.792;2023-07-28T03:32:53;1.90;;;1.00;;
75603;SDS011;64187;51.010;13.792;2023-07-28T03:37:51;2.40;;;1.13;;
75603;SDS011;64187;51.010;13.792;2023-07-28T03:42:51;3.10;;;1.17;;
75603;SDS011;64187;51.010;13.792;2023-07-28T03:47:50;2.03;;;0.93;;
75603;SDS011;64187;51.010;13.792;2023-07-28T03:52:49;1.60;;;0.90;;
75603;SDS011;64187;51.010;13.792;2023-07-28T03:57:48;1.70;;;0.93;;
75603;SDS011;64187;51.010;13.792;2023-07-28T04:02:47;2.20;;;1.05;;
75603;SDS011;64187;51.010;13.792;2023-07-28T04:07:46;1.23;;;0.90;;
75603;SDS011;64187;51.010;13.792;2023-07-28T04:12:46;2.35;;;1.27;;
75603;SDS011;64187;51.010;13.792;2023-07-28T04:17:45;2.40;;;1.10;;
75603;SDS011;64187;51.010;13.792;2023-07-28T04:22:46;1.77;;;1.00;;
75603;SDS011;64187;51.010;13.792;2023-07-28T04:27:45;4.25;;;1.20;;
75603;SDS011;64187;51.010;13.792;2023-07-28T04:32:44;1.20;;;0.45;;
75603;SDS011;64187;51.010;13.792;2023-07-28T04:37:48;3.80;;;0.70;;
75603;SDS011;64187;51.010;13.792;2023-07-28T04:42:56;1.20;;;0.65;;
75603;SDS011;64187;51.010;13.792;2023-07-28T04:47:55;0.82;;;0.50;;
75603;SDS011;64187;51.010;13.792;2023-07-28T04:52:54;0.70;;;0.52;;
75603;SDS011;64187;51.010;13.792;2023-07-28T04:58:13;2.08;;;0.55;;
75603;SDS011;64187;51.010;13.792;2023-07-28T05:03:21;1.67;;;0.40;;
75603;SDS011;64187;51.010;13.792;2023-07-28T05:08:27;1.33;;;0.73;;
75603;SDS011;64187;51.010;13.792;2023-07-28T05:13:25;4.22;;;0.70;;
75603;SDS011;64187;51.010;13.792;2023-07-28T05:18:27;0.88;;;0.70;;
75603;SDS011;64187;51.010;13.792;2023-07-28T05:23:48;1.23;;;0.85;;
75603;SDS011;64187;51.010;13.792;2023-07-28T05:28:48;0.88;;;0.73;;
75603;SDS011;64187;51.010;13.792;2023-07-28T05:33:46;1.63;;;0.63;;
75603;SDS011;64187;51.010;13.792;2023-07-28T05:38:45;3.20;;;0.82;;
75603;SDS011;64187;51.010;13.792;2023-07-28T05:43:44;1.52;;;0.65;;
75603;SDS011;64187;51.010;13.792;2023-07-28T05:48:43;2.97;;;0.75;;
75603;SDS011;64187;51.010;13.792;2023-07-28T05:53:42;0.85;;;0.57;;
75603;SDS011;64187;51.010;13.792;2023-07-28T05:58:41;0.90;;;0.60;;
75603;SDS011;64187;51.010;13.792;2023-07-28T06:03:40;0.68;;;0.50;;
75603;SDS011;64187;51.010;13.792;2023-07-28T06:08:49;1.00;;;0.52;;
75603;SDS011;64187;51.010;13.792;2023-07-28T06:13:48;1.27;;;0.60;;
75603;SDS011;64187;51.010;13.792;2023-07-28T06:18:47;0.68;;;0.55;;
75603;SDS011;64187;51.010;13.792;2023-07-28T06:23:50;1.63;;;0.70;;
75603;SDS011;64187;51.010;13.792;2023-07-28T06:28:49;0.90;;;0.70;;
75603;SDS011;64187;51.010;13.792;2023-07-28T06:33:49;1.00;;;0.75;;
75603;SDS011;64187;51.010;13.792;2023-07-28T06:38:48;0.60;;;0.40;;
75603;SDS011;64187;51.010;13.792;2023-07-28T06:43:48;1.88;;;0.70;;
75603;SDS011;64187;51.010;13.792;2023-07-28T06:48:47;0.50;;;0.47;;
75603;SDS011;64187;51.010;13.792;2023-07-28T06:53:47;0.93;;;0.60;;
75603;SDS011;64187;51.010;13.792;2023-07-28T06:58:46;1.35;;;0.52;;
75603;SDS011;64187;51.010;13.792;2023-07-28T07:03:58;1.50;;;0.50;;
75603;SDS011;64187;51.010;13.792;2023-07-28T07:08:58;1.02;;;0.30;;
75603;SDS011;64187;51.010;13.792;2023-07-28T07:13:57;0.40;;;0.30;;
75603;SDS011;64187;51.010;13.792;2023-07-28T07:18:56;0.50;;;0.25;;
75603;SDS011;64187;51.010;13.792;2023-07-28T07:23:55;0.50;;;0.40;;
75603;SDS011;64187;51.010;13.792;2023-07-28T07:28:56;0.95;;;0.30;;
75603;SDS011;64187;51.010;13.792;2023-07-28T07:33:55;0.43;;;0.30;;
75603;SDS011;64187;51.010;13.792;2023-07-28T07:38:54;0.73;;;0.30;;
75603;SDS011;64187;51.010;13.792;2023-07-28T07:43:53;0.20;;;0.20;;
75603;SDS011;64187;51.010;13.792;2023-07-28T07:48:53;1.35;;;0.30;;
75603;SDS011;64187;51.010;13.792;2023-07-28T07:53:51;2.10;;;0.50;;
75603;SDS011;64187;51.010;13.792;2023-07-28T07:58:51;1.13;;;0.40;;
75603;SDS011;64187;51.010;13.792;2023-07-28T08:03:49;0.73;;;0.25;;
75603;SDS011;64187;51.010;13.792;2023-07-28T08:08:48;0.68;;;0.35;;
75603;SDS011;64187;51.010;13.792;2023-07-28T08:13:49;1.45;;;0.40;;
75603;SDS011;64187;51.010;13.792;2023-07-28T08:18:48;0.52;;;0.30;;
75603;SDS011;64187;51.010;13.792;2023-07-28T08:23:47;0.25;;;0.25;;
75603;SDS011;64187;51.010;13.792;2023-07-28T08:28:45;0.28;;;0.20;;
75603;SDS011;64187;51.010;13.792;2023-07-28T08:33:44;0.65;;;0.50;;
75603;SDS011;64187;51.010;13.792;2023-07-28T08:38:44;1.50;;;0.20;;
75603;SDS011;64187;51.010;13.792;2023-07-28T08:43:43;0.32;;;0.25;;
75603;SDS011;64187;51.010;13.792;2023-07-28T08:48:42;0.47;;;0.30;;
75603;SDS011;64187;51.010;13.792;2023-07-28T08:53:41;1.02;;;0.45;;
75603;SDS011;64187;51.010;13.792;2023-07-28T08:58:40;0.55;;;0.47;;
75603;SDS011;64187;51.010;13.792;2023-07-28T09:03:39;0.63;;;0.40;;
75603;SDS011;64187;51.010;13.792;2023-07-28T09:08:40;2.05;;;0.50;;
75603;SDS011;64187;51.010;13.792;2023-07-28T09:13:41;0.60;;;0.52;;
75603;SDS011;64187;51.010;13.792;2023-07-28T09:18:40;0.55;;;0.40;;
75603;SDS011;64187;51.010;13.792;2023-07-28T09:23:39;0.30;;;0.30;;
75603;SDS011;64187;51.010;13.792;2023-07-28T09:28:39;1.00;;;0.40;;
75603;SDS011;64187;51.010;13.792;2023-07-28T09:33:39;0.60;;;0.40;;
75603;SDS011;64187;51.010;13.792;2023-07-28T09:38:45;1.58;;;0.30;;
75603;SDS011;64187;51.010;13.792;2023-07-28T09:43:45;0.47;;;0.40;;
75603;SDS011;64187;51.010;13.792;2023-07-28T09:48:47;1.00;;;0.38;;
75603;SDS011;64187;51.010;13.792;2023-07-28T09:54:14;2.03;;;0.47;;
75603;SDS011;64187;51.010;13.792;2023-07-28T09:59:13;0.60;;;0.40;;
75603;SDS011;64187;51.010;13.792;2023-07-28T10:04:16;0.55;;;0.40;;
75603;SDS011;64187;51.010;13.792;2023-07-28T10:09:16;0.32;;;0.32;;
75603;SDS011;64187;51.010;13.792;2023-07-28T10:19:44;0.57;;;0.52;;
75603;SDS011;64187;51.010;13.792;2023-07-28T10:24:54;0.80;;;0.40;;
75603;SDS011;64187;51.010;13.792;2023-07-28T10:30:00;0.50;;;0.38;;
75603;SDS011;64187;51.010;13.792;2023-07-28T10:35:07;0.35;;;0.35;;
75603;SDS011;64187;51.010;13.792;2023-07-28T10:45:33;0.32;;;0.30;;
75603;SDS011;64187;51.010;13.792;2023-07-28T10:50:32;0.40;;;0.40;;
75603;SDS011;64187;51.010;13.792;2023-07-28T10:55:31;0.40;;;0.40;;
75603;SDS011;64187;51.010;13.792;2023-07-28T11:00:30;1.20;;;0.80;;
75603;SDS011;64187;51.010;13.792;2023-07-28T11:05:30;1.02;;;0.60;;
75603;SDS011;64187;51.010;13.792;2023-07-28T11:10:30;0.80;;;0.45;;
75603;SDS011;64187;51.010;13.792;2023-07-28T11:15:29;0.77;;;0.55;;
75603;SDS011;64187;51.010;13.792;2023-07-28T11:20:29;0.40;;;0.30;;
75603;SDS011;64187;51.010;13.792;2023-07-28T11:25:28;1.27;;;0.70;;
75603;SDS011;64187;51.010;13.792;2023-07-28T11:30:28;1.00;;;0.73;;
75603;SDS011;64187;51.010;13.792;2023-07-28T11:35:33;0.50;;;0.38;;
75603;SDS011;64187;51.010;13.792;2023-07-28T11:40:33;0.55;;;0.40;;
75603;SDS011;64187;51.010;13.792;2023-07-28T11:45:32;7.53;;;0.93;;
75603;SDS011;64187;51.010;13.792;2023-07-28T11:50:37;0.80;;;0.68;;
75603;SDS011;64187;51.010;13.792;2023-07-28T11:55:38;0.70;;;0.50;;
75603;SDS011;64187;51.010;13.792;2023-07-28T12:00:39;1.13;;;0.65;;
75603;SDS011;64187;51.010;13.792;2023-07-28T12:05:42;1.58;;;0.70;;
75603;SDS011;64187;51.010;13.792;2023-07-28T12:11:02;0.88;;;0.63;;
75603;SDS011;64187;51.010;13.792;2023-07-28T12:16:04;1.50;;;0.57;;
75603;SDS011;64187;51.010;13.792;2023-07-28T12:21:23;1.25;;;0.57;;
75603;SDS011;64187;51.010;13.792;2023-07-28T12:26:22;0.95;;;0.52;;
75603;SDS011;64187;51.010;13.792;2023-07-28T12:31:20;2.05;;;0.80;;
75603;SDS011;64187;51.010;13.792;2023-07-28T12:36:20;1.17;;;0.50;;
75603;SDS011;64187;51.010;13.792;2023-07-28T12:41:22;1.52;;;0.55;;
75603;SDS011;64187;51.010;13.792;2023-07-28T12:46:38;1.95;;;0.60;;
75603;SDS011;64187;51.010;13.792;2023-07-28T12:51:37;0.93;;;0.70;;
75603;SDS011;64187;51.010;13.792;2023-07-28T12:56:36;1.20;;;0.88;;
75603;SDS011;64187;51.010;13.792;2023-07-28T13:01:36;1.95;;;1.08;;
75603;SDS011;64187;51.010;13.792;2023-07-28T13:06:36;1.55;;;0.80;;
75603;SDS011;64187;51.010;13.792;2023-07-28T13:11:36;1.05;;;0.60;;
75603;SDS011;64187;51.010;13.792;2023-07-28T13:16:40;2.40;;;0.80;;
75603;SDS011;64187;51.010;13.792;2023-07-28T13:21:39;1.15;;;0.57;;
75603;SDS011;64187;51.010;13.792;2023-07-28T13:26:38;0.57;;;0.55;;
75603;SDS011;64187;51.010;13.792;2023-07-28T13:31:37;1.33;;;0.50;;
75603;SDS011;64187;51.010;13.792;2023-07-28T13:36:36;1.20;;;1.10;;
75603;SDS011;64187;51.010;13.792;2023-07-28T13:41:35;1.05;;;0.70;;
75603;SDS011;64187;51.010;13.792;2023-07-28T13:46:34;0.95;;;0.70;;
75603;SDS011;64187;51.010;13.792;2023-07-28T13:51:33;0.50;;;0.45;;
75603;SDS011;64187;51.010;13.792;2023-07-28T13:56:52;0.60;;;0.50;;
75603;SDS011;64187;51.010;13.792;2023-07-28T14:01:54;0.80;;;0.60;;
75603;SDS011;64187;51.010;13.792;2023-07-28T14:06:54;0.98;;;0.90;;
75603;SDS011;64187;51.010;13.792;2023-07-28T14:11:53;2.75;;;0.73;;
75603;SDS011;64187;51.010;13.792;2023-07-28T14:16:52;1.77;;;0.60;;
75603;SDS011;64187;51.010;13.792;2023-07-28T14:21:51;1.02;;;0.80;;
75603;SDS011;64187;51.010;13.792;2023-07-28T14:26:49;1.38;;;0.75;;
75603;SDS011;64187;51.010;13.792;2023-07-28T14:31:48;0.60;;;0.50;;
75603;SDS011;64187;51.010;13.792;2023-07-28T14:36:48;0.65;;;0.65;;
75603;SDS011;64187;51.010;13.792;2023-07-28T14:41:46;0.77;;;0.70;;
75603;SDS011;64187;51.010;13.792;2023-07-28T14:46:45;0.65;;;0.60;;
75603;SDS011;64187;51.010;13.792;2023-07-28T14:51:45;0.85;;;0.70;;
75603;SDS011;64187;51.010;13.792;2023-07-28T14:56:44;0.95;;;0.50;;
75603;SDS011;64187;51.010;13.792;2023-07-28T15:01:43;0.85;;;0.50;;
75603;SDS011;64187;51.010;13.792;2023-07-28T15:06:42;0.63;;;0.52;;
75603;SDS011;64187;51.010;13.792;2023-07-28T15:11:43;0.77;;;0.60;;
75603;SDS011;64187;51.010;13.792;2023-07-28T15:16:42;1.00;;;0.70;;
75603;SDS011;64187;51.010;13.792;2023-07-28T15:21:40;4.70;;;0.93;;
75603;SDS011;64187;51.010;13.792;2023-07-28T15:26:39;2.35;;;0.93;;
75603;SDS011;64187;51.010;13.792;2023-07-28T15:31:38;2.63;;;1.10;;
75603;SDS011;64187;51.010;13.792;2023-07-28T15:36:37;1.20;;;1.00;;
75603;SDS011;64187;51.010;13.792;2023-07-28T15:41:36;1.15;;;0.63;;
75603;SDS011;64187;51.010;13.792;2023-07-28T15:46:36;3.33;;;0.90;;
75603;SDS011;64187;51.010;13.792;2023-07-28T15:51:34;0.95;;;0.70;;
75603;SDS011;64187;51.010;13.792;2023-07-28T15:56:34;1.33;;;0.88;;
75603;SDS011;64187;51.010;13.792;2023-07-28T16:01:32;0.90;;;0.73;;
75603;SDS011;64187;51.010;13.792;2023-07-28T16:06:32;1.05;;;0.80;;
75603;SDS011;64187;51.010;13.792;2023-07-28T16:11:31;0.70;;;0.70;;
75603;SDS011;64187;51.010;13.792;2023-07-28T16:16:31;2.78;;;1.10;;
75603;SDS011;64187;51.010;13.792;2023-07-28T16:21:30;3.20;;;0.88;;
75603;SDS011;64187;51.010;13.792;2023-07-28T16:26:29;2.47;;;1.15;;
75603;SDS011;64187;51.010;13.792;2023-07-28T16:31:28;1.20;;;1.10;;
75603;SDS011;64187;51.010;13.792;2023-07-28T16:36:27;2.15;;;0.90;;
75603;SDS011;64187;51.010;13.792;2023-07-28T16:41:26;1.50;;;0.73;;
75603;SDS011;64187;51.010;13.792;2023-07-28T16:46:25;1.10;;;0.60;;
75603;SDS011;64187;51.010;13.792;2023-07-28T16:51:24;0.90;;;0.63;;
75603;SDS011;64187;51.010;13.792;2023-07-28T16:56:23;1.00;;;0.80;;
75603;SDS011;64187;51.010;13.792;2023-07-28T17:01:21;1.88;;;1.10;;
75603;SDS011;64187;51.010;13.792;2023-07-28T17:06:20;1.27;;;0.60;;
75603;SDS011;64187;51.010;13.792;2023-07-28T17:11:19;1.02;;;0.75;;
75603;SDS011;64187;51.010;13.792;2023-07-28T17:16:18;1.05;;;0.50;;
75603;SDS011;64187;51.010;13.792;2023-07-28T17:21:18;1.25;;;0.90;;
75603;SDS011;64187;51.010;13.792;2023-07-28T17:26:17;0.98;;;0.80;;
75603;SDS011;64187;51.010;13.792;2023-07-28T17:31:16;0.75;;;0.70;;
75603;SDS011;64187;51.010;13.792;2023-07-28T17:36:15;1.60;;;0.63;;
75603;SDS011;64187;51.010;13.792;2023-07-28T17:41:14;1.50;;;0.70;;
75603;SDS011;64187;51.010;13.792;2023-07-28T17:46:13;1.42;;;0.90;;
75603;SDS011;64187;51.010;13.792;2023-07-28T17:51:12;0.80;;;0.68;;
75603;SDS011;64187;51.010;13.792;2023-07-28T17:56:10;1.20;;;0.88;;
75603;SDS011;64187;51.010;13.792;2023-07-28T18:07:58;0.70;;;0.70;;
75603;SDS011;64187;51.010;13.792;2023-07-28T18:12:57;0.70;;;0.70;;
75603;SDS011;64187;51.010;13.792;2023-07-28T18:17:56;1.13;;;0.60;;
75603;SDS011;64187;51.010;13.792;2023-07-28T18:22:55;1.10;;;0.80;;
75603;SDS011;64187;51.010;13.792;2023-07-28T18:27:54;1.38;;;0.60;;
75603;SDS011;64187;51.010;13.792;2023-07-28T18:32:53;1.15;;;1.05;;
75603;SDS011;64187;51.010;13.792;2023-07-28T18:37:52;0.90;;;0.70;;
75603;SDS011;64187;51.010;13.792;2023-07-28T18:42:51;1.23;;;0.90;;
75603;SDS011;64187;51.010;13.792;2023-07-28T18:47:50;2.00;;;0.93;;
75603;SDS011;64187;51.010;13.792;2023-07-28T18:52:49;0.90;;;0.80;;
75603;SDS011;64187;51.010;13.792;2023-07-28T18:57:48;1.15;;;0.95;;
75603;SDS011;64187;51.010;13.792;2023-07-28T19:02:47;2.05;;;1.20;;
75603;SDS011;64187;51.010;13.792;2023-07-28T19:07:53;1.10;;;0.80;;
75603;SDS011;64187;51.010;13.792;2023-07-28T19:12:52;1.40;;;1.30;;
75603;SDS011;64187;51.010;13.792;2023-07-28T19:17:51;2.88;;;0.95;;
75603;SDS011;64187;51.010;13.792;2023-07-28T19:22:51;1.65;;;1.00;;
75603;SDS011;64187;51.010;13.792;2023-07-28T19:27:49;1.90;;;0.98;;
75603;SDS011;64187;51.010;13.792;2023-07-28T19:32:49;1.02;;;0.70;;
75603;SDS011;64187;51.010;13.792;2023-07-28T19:37:48;0.93;;;0.75;;
75603;SDS011;64187;51.010;13.792;2023-07-28T19:42:46;4.88;;;2.90;;
75603;SDS011;64187;51.010;13.792;2023-07-28T19:47:46;6.93;;;3.90;;
75603;SDS011;64187;51.010;13.792;2023-07-28T19:52:45;4.38;;;1.95;;
75603;SDS011;64187;51.010;13.792;2023-07-28T19:57:43;3.55;;;1.80;;
75603;SDS011;64187;51.010;13.792;2023-07-28T20:02:42;1.30;;;0.90;;
75603;SDS011;64187;51.010;13.792;2023-07-28T20:07:41;1.67;;;0.98;;
75603;SDS011;64187;51.010;13.792;2023-07-28T20:12:41;1.95;;;1.08;;
75603;SDS011;64187;51.010;13.792;2023-07-28T20:17:39;1.23;;;1.13;;
75603;SDS011;64187;51.010;13.792;2023-07-28T20:22:38;1.40;;;1.00;;
75603;SDS011;64187;51.010;13.792;2023-07-28T20:27:41;1.50;;;1.05;;
75603;SDS011;64187;51.010;13.792;2023-07-28T20:32:42;2.50;;;1.77;;
75603;SDS011;64187;51.010;13.792;2023-07-28T20:37:41;1.63;;;1.08;;
75603;SDS011;64187;51.010;13.792;2023-07-28T20:42:40;1.38;;;1.23;;
75603;SDS011;64187;51.010;13.792;2023-07-28T20:47:39;2.08;;;0.98;;
75603;SDS011;64187;51.010;13.792;2023-07-28T20:52:38;2.55;;;1.00;;
75603;SDS011;64187;51.010;13.792;2023-07-28T20:57:37;1.10;;;1.00;;
75603;SDS011;64187;51.010;13.792;2023-07-28T21:02:37;1.23;;;0.90;;
75603;SDS011;64187;51.010;13.792;2023-07-28T21:07:36;1.30;;;0.98;;
75603;SDS011;64187;51.010;13.792;2023-07-28T21:12:35;1.80;;;1.13;;
75603;SDS011;64187;51.010;13.792;2023-07-28T21:17:34;1.30;;;1.20;;
75603;SDS011;64187;51.010;13.792;2023-07-28T21:22:33;1.63;;;1.15;;
75603;SDS011;64187;51.010;13.792;2023-07-28T21:27:32;2.42;;;1.33;;
75603;SDS011;64187;51.010;13.792;2023-07-28T21:32:31;2.63;;;1.08;;
75603;SDS011;64187;51.010;13.792;2023-07-28T21:37:30;1.98;;;1.10;;
75603;SDS011;64187;51.010;13.792;2023-07-28T21:42:29;1.63;;;1.05;;
75603;SDS011;64187;51.010;13.792;2023-07-28T21:47:28;1.42;;;1.10;;
75603;SDS011;64187;51.010;13.792;2023-07-28T21:52:27;2.97;;;1.27;;
75603;SDS011;64187;51.010;13.792;2023-07-28T21:57:26;2.05;;;1.38;;
75603;SDS011;64187;51.010;13.792;2023-07-28T22:02:25;1.83;;;1.30;;
75603;SDS011;64187;51.010;13.792;2023-07-28T22:07:24;1.48;;;1.30;;
75603;SDS011;64187;51.010;13.792;2023-07-28T22:12:24;1.80;;;1.30;;
75603;SDS011;64187;51.010;13.792;2023-07-28T22:17:24;1.67;;;1.45;;
75603;SDS011;64187;51.010;13.792;2023-07-28T22:22:23;1.95;;;1.10;;
75603;SDS011;64187;51.010;13.792;2023-07-28T22:27:22;1.35;;;1.25;;
75603;SDS011;64187;51.010;13.792;2023-07-28T22:32:21;1.80;;;1.65;;
75603;SDS011;64187;51.010;13.792;2023-07-28T22:37:20;3.33;;;1.52;;
75603;SDS011;64187;51.010;13.792;2023-07-28T22:42:19;3.78;;;1.90;;
75603;SDS011;64187;51.010;13.792;2023-07-28T22:47:18;3.05;;;1.70;;
75603;SDS011;64187;51.010;13.792;2023-07-28T22:52:17;3.50;;;2.08;;
75603;SDS011;64187;51.010;13.792;2023-07-28T22:57:17;2.67;;;2.03;;
75603;SDS011;64187;51.010;13.792;2023-07-28T23:02:15;4.82;;;2.08;;
75603;SDS011;64187;51.010;13.792;2023-07-28T23:07:14;2.90;;;1.95;;
75603;SDS011;64187;51.010;13.792;2023-07-28T23:12:15;3.92;;;1.80;;
75603;SDS011;64187;51.010;13.792;2023-07-28T23:17:14;2.72;;;1.90;;
75603;SDS011;64187;51.010;13.792;2023-07-28T23:22:15;3.90;;;1.98;;
75603;SDS011;64187;51.010;13.792;2023-07-28T23:27:13;2.97;;;2.00;;
75603;SDS011;64187;51.010;13.792;2023-07-28T23:32:12;2.30;;;1.88;;
75603;SDS011;64187;51.010;13.792;2023-07-28T23:37:11;1.88;;;1.67;;
